createdAt,value
2019-06-01T00:00:15.340Z,95.6
2019-06-01T00:00:56.731Z,95.7
2019-06-01T00:01:38.228Z,95.51
2019-06-01T00:02:17.582Z,95.51
2019-06-01T00:03:38.834Z,95.6
2019-06-01T00:04:19.589Z,95.51
2019-06-01T00:05:00.146Z,95.31
2019-06-01T00:05:40.649Z,95.6
2019-06-01T00:06:21.432Z,95.51
2019-06-01T00:07:02.123Z,95.89
2019-06-01T00:08:23.183Z,95.6
2019-06-01T00:09:03.751Z,95.31
2019-06-01T00:09:45.142Z,95.75
2019-06-01T00:10:24.829Z,95.65
2019-06-01T00:11:05.488Z,95.84
2019-06-01T00:11:47.367Z,95.65
2019-06-01T00:12:27.410Z,95.94
2019-06-01T00:13:09.261Z,95.75
2019-06-01T00:13:50.046Z,95.75
2019-06-01T00:14:30.768Z,95.46
2019-06-01T00:15:11.458Z,96.22
2019-06-01T00:15:51.896Z,95.75
2019-06-01T00:16:32.665Z,95.65
2019-06-01T00:17:13.138Z,96.7
2019-06-01T00:17:54.038Z,96.7
2019-06-01T00:18:35.106Z,97.18
2019-06-01T00:19:15.676Z,98.05
2019-06-01T00:19:55.993Z,97.76
2019-06-01T00:20:36.396Z,97.18
2019-06-01T00:21:16.830Z,98.14
2019-06-01T00:21:57.238Z,98.05
2019-06-01T00:23:18.141Z,98.05
2019-06-01T00:23:58.552Z,98.33
2019-06-01T00:24:38.978Z,98.81
2019-06-01T00:25:19.389Z,98.72
2019-06-01T00:25:59.943Z,98.33
2019-06-01T00:26:41.550Z,98.24
2019-06-01T00:27:20.762Z,99.1
2019-06-01T00:28:01.164Z,99.29
2019-06-01T00:28:41.737Z,99.77
2019-06-01T00:29:21.978Z,99.68
2019-06-01T00:30:43.635Z,99.48
2019-06-01T00:31:23.335Z,99.48
2019-06-01T00:32:03.713Z,99.68
2019-06-01T00:33:24.582Z,99.43
2019-06-01T00:34:04.953Z,99.99
2019-06-01T00:34:45.737Z,99.96
2019-06-01T00:35:25.780Z,99.99
2019-06-01T00:36:06.224Z,99.99
2019-06-01T00:36:47.784Z,99.99
2019-06-01T00:37:27.061Z,99.99
2019-06-01T00:38:07.483Z,99.99
2019-06-01T00:38:49.855Z,99.99
2019-06-01T00:39:29.186Z,99.99
2019-06-01T00:40:09.672Z,99.99
2019-06-01T00:40:50.072Z,99.99
2019-06-01T00:41:30.952Z,99.99
2019-06-01T00:42:12.514Z,99.99
2019-06-01T00:42:52.975Z,99.99
2019-06-01T00:43:33.852Z,99.99
2019-06-01T00:44:14.205Z,99.99
2019-06-01T00:44:55.042Z,99.99
2019-06-01T00:45:35.504Z,99.99
2019-06-01T00:46:16.378Z,99.99
2019-06-01T00:46:57.717Z,99.99
2019-06-01T00:47:40.151Z,99.99
2019-06-01T00:48:21.107Z,99.99
2019-06-01T00:49:01.471Z,99.99
2019-06-01T00:49:42.665Z,99.99
2019-06-01T00:50:23.220Z,99.99
2019-06-01T00:51:03.724Z,99.99
2019-06-01T00:51:44.996Z,99.99
2019-06-01T00:53:06.385Z,99.99
2019-06-01T00:53:47.321Z,99.99
2019-06-01T00:54:27.531Z,99.99
2019-06-01T00:55:08.703Z,99.99
2019-06-01T00:55:49.499Z,99.99
2019-06-01T00:56:30.043Z,99.99
2019-06-01T00:57:10.376Z,99.99
2019-06-01T00:57:51.952Z,99.99
2019-06-01T00:58:33.006Z,99.99
2019-06-01T00:59:14.876Z,99.99
2019-06-01T01:00:43.425Z,99.99
2019-06-01T01:01:18.427Z,99.99
2019-06-01T01:01:58.863Z,99.99
2019-06-01T01:02:39.448Z,99.99
2019-06-01T01:03:19.892Z,99.99
2019-06-01T01:04:00.643Z,99.99
2019-06-01T01:04:41.575Z,99.99
2019-06-01T01:05:21.848Z,99.99
2019-06-01T01:06:02.215Z,99.99
2019-06-01T01:06:42.674Z,99.99
2019-06-01T01:07:23.158Z,99.99
2019-06-01T01:08:03.527Z,99.99
2019-06-01T01:08:44.768Z,99.99
2019-06-01T01:09:24.402Z,99.99
2019-06-01T01:10:45.290Z,99.99
2019-06-01T01:11:25.729Z,99.99
2019-06-01T01:12:06.121Z,99.99
2019-06-01T01:13:26.981Z,99.99
2019-06-01T01:15:14.436Z,99.99
2019-06-01T01:15:55.535Z,99.99
2019-06-01T01:16:35.217Z,99.99
2019-06-01T01:17:15.631Z,99.99
2019-06-01T01:17:56.209Z,99.99
2019-06-01T01:18:36.452Z,99.99
2019-06-01T01:19:16.852Z,99.99
2019-06-01T01:20:37.629Z,99.99
2019-06-01T01:21:17.995Z,99.99
2019-06-01T01:21:58.405Z,99.99
2019-06-01T01:23:19.183Z,99.99
2019-06-01T01:23:59.564Z,99.99
2019-06-01T01:24:39.942Z,99.99
2019-06-01T01:25:20.318Z,99.99
2019-06-01T01:26:00.708Z,99.99
2019-06-01T01:26:41.098Z,99.99
2019-06-01T01:27:21.468Z,99.99
2019-06-01T01:28:01.927Z,99.99
2019-06-01T01:28:42.251Z,99.99
2019-06-01T01:29:22.637Z,99.99
2019-06-01T01:30:03.021Z,99.99
2019-06-01T01:30:57.984Z,99.99
2019-06-01T01:31:23.840Z,99.99
2019-06-01T01:32:04.215Z,99.99
2019-06-01T01:32:44.598Z,99.99
2019-06-01T01:33:24.999Z,99.99
2019-06-01T01:34:05.406Z,99.99
2019-06-01T01:34:45.773Z,99.99
2019-06-01T01:35:26.184Z,99.99
2019-06-01T01:36:06.593Z,99.99
2019-06-01T01:39:30.957Z,99.99
2019-06-01T01:41:21.247Z,99.99
2019-06-01T01:42:02.197Z,99.99
2019-06-01T01:42:42.587Z,99.99
2019-06-01T01:43:23.000Z,99.99
2019-06-01T01:44:03.438Z,99.99
2019-06-01T01:44:43.828Z,99.99
2019-06-01T01:45:24.298Z,99.99
2019-06-01T01:46:04.768Z,99.99
2019-06-01T01:46:45.257Z,99.99
2019-06-01T01:47:25.706Z,99.99
2019-06-01T01:48:06.119Z,99.99
2019-06-01T01:48:46.520Z,99.99
2019-06-01T01:49:27.807Z,99.99
2019-06-01T01:50:08.246Z,99.99
2019-06-01T01:50:48.661Z,99.99
2019-06-01T01:51:29.454Z,99.99
2019-06-01T01:52:09.888Z,99.99
2019-06-01T01:52:50.603Z,99.99
2019-06-01T01:53:30.662Z,99.99
2019-06-01T01:54:11.124Z,99.99
2019-06-01T01:55:31.915Z,99.99
2019-06-01T01:56:12.321Z,99.99
2019-06-01T01:56:54.033Z,99.99
2019-06-01T01:58:13.651Z,99.99
2019-06-01T01:58:54.327Z,99.99
2019-06-01T01:59:34.752Z,99.99
2019-06-01T02:00:15.271Z,99.99
2019-06-01T02:00:56.735Z,99.99
2019-06-01T02:01:36.092Z,99.99
2019-06-01T02:02:57.945Z,99.99
2019-06-01T02:03:37.547Z,99.99
2019-06-01T02:04:17.947Z,99.99
2019-06-01T02:08:08.796Z,99.99
2019-06-01T02:08:59.830Z,99.99
2019-06-01T02:09:49.093Z,99.99
2019-06-01T02:10:37.746Z,99.99
2019-06-01T02:11:27.194Z,99.99
2019-06-01T02:12:13.503Z,99.99
2019-06-01T02:12:53.421Z,99.99
2019-06-01T02:13:33.602Z,99.99
2019-06-01T02:14:14.031Z,99.99
2019-06-01T02:16:13.699Z,99.99
2019-06-01T02:18:49.021Z,99.99
2019-06-01T02:19:28.635Z,99.99
2019-06-01T02:20:09.188Z,99.99
2019-06-01T02:20:49.680Z,99.99
2019-06-01T02:21:30.132Z,99.99
2019-06-01T02:22:10.563Z,99.99
2019-06-01T02:22:50.952Z,99.99
2019-06-01T02:23:31.357Z,99.99
2019-06-01T02:24:11.762Z,99.99
2019-06-01T02:25:32.621Z,99.99
2019-06-01T02:26:13.016Z,99.99
2019-06-01T02:26:55.082Z,99.99
2019-06-01T02:27:35.725Z,99.99
2019-06-01T02:28:16.119Z,99.99
2019-06-01T02:28:57.270Z,99.99
2019-06-01T02:29:36.952Z,99.99
2019-06-01T02:30:17.357Z,99.99
2019-06-01T02:30:57.946Z,99.99
2019-06-01T02:31:41.895Z,99.99
2019-06-01T02:33:00.187Z,99.99
2019-06-01T02:33:39.496Z,99.99
2019-06-01T02:34:19.932Z,99.99
2019-06-01T02:35:00.399Z,99.99
2019-06-01T02:35:40.746Z,99.99
2019-06-01T02:36:21.202Z,99.99
2019-06-01T02:37:02.368Z,99.99
2019-06-01T02:37:42.095Z,99.99
2019-06-01T02:38:22.488Z,99.99
2019-06-01T02:39:03.531Z,99.99
2019-06-01T02:39:43.355Z,99.99
2019-06-01T02:40:23.741Z,99.99
2019-06-01T02:41:05.644Z,99.99
2019-06-01T02:41:44.547Z,99.99
2019-06-01T02:42:25.013Z,99.99
2019-06-01T02:43:06.553Z,99.99
2019-06-01T02:43:45.812Z,99.99
2019-06-01T02:44:26.313Z,99.99
2019-06-01T02:45:06.766Z,99.99
2019-06-01T02:45:47.210Z,99.99
2019-06-01T02:46:27.585Z,99.99
2019-06-01T02:47:08.166Z,99.99
2019-06-01T02:47:48.673Z,99.99
2019-06-01T02:48:29.072Z,99.99
2019-06-01T02:49:09.471Z,99.99
2019-06-01T02:50:30.242Z,99.99
2019-06-01T02:51:10.671Z,99.99
2019-06-01T02:51:51.075Z,99.99
2019-06-01T02:53:12.204Z,99.99
2019-06-01T02:53:52.789Z,99.99
2019-06-01T02:54:33.486Z,99.99
2019-06-01T02:55:13.956Z,99.99
2019-06-01T02:55:55.720Z,99.99
2019-06-01T02:56:35.573Z,99.99
2019-06-01T02:57:15.851Z,99.99
2019-06-01T02:57:56.559Z,99.99
2019-06-01T02:58:37.149Z,99.99
2019-06-01T02:59:17.512Z,99.99
2019-06-01T02:59:58.641Z,99.99
2019-06-01T03:00:39.086Z,99.99
2019-06-01T03:01:20.043Z,99.99
2019-06-01T03:02:07.263Z,99.99
2019-06-01T03:02:41.608Z,99.99
2019-06-01T03:03:22.314Z,99.99
2019-06-01T03:04:03.404Z,99.99
2019-06-01T03:04:43.553Z,99.99
2019-06-01T03:05:24.328Z,99.99
2019-06-01T03:06:05.614Z,99.99
2019-06-01T03:06:47.202Z,99.99
2019-06-01T03:07:27.669Z,99.99
2019-06-01T03:08:08.104Z,99.99
2019-06-01T03:08:48.837Z,99.99
2019-06-01T03:10:36.515Z,99.99
2019-06-01T03:11:17.370Z,99.99
2019-06-01T03:11:59.298Z,99.99
2019-06-01T03:12:38.236Z,99.99
2019-06-01T03:13:18.655Z,99.99
2019-06-01T03:14:00.263Z,99.99
2019-06-01T03:14:39.536Z,99.99
2019-06-01T03:15:19.923Z,99.99
2019-06-01T03:16:03.278Z,99.99
2019-06-01T03:16:41.466Z,99.99
2019-06-01T03:17:21.937Z,99.99
2019-06-01T03:18:03.440Z,99.99
2019-06-01T03:18:42.822Z,99.99
2019-06-01T03:19:23.215Z,99.99
2019-06-01T03:20:04.547Z,99.99
2019-06-01T03:20:44.775Z,99.99
2019-06-01T03:21:25.570Z,99.99
2019-06-01T03:22:07.198Z,99.99
2019-06-01T03:22:47.622Z,99.99
2019-06-01T03:23:28.585Z,99.99
2019-06-01T03:24:09.575Z,99.99
2019-06-01T03:24:50.065Z,99.99
2019-06-01T03:25:30.870Z,99.99
2019-06-01T03:26:12.418Z,99.99
2019-06-01T03:26:53.378Z,99.99
2019-06-01T03:28:17.573Z,99.99
2019-06-01T03:28:58.058Z,99.99
2019-06-01T03:29:38.551Z,99.99
2019-06-01T03:31:01.096Z,99.99
2019-06-01T03:31:41.119Z,99.99
2019-06-01T03:32:34.913Z,99.99
2019-06-01T03:33:03.415Z,99.99
2019-06-01T03:33:43.179Z,99.99
2019-06-01T03:34:23.832Z,99.99
2019-06-01T03:35:04.711Z,99.99
2019-06-01T03:35:45.437Z,99.99
2019-06-01T03:36:26.471Z,99.99
2019-06-01T03:37:07.206Z,99.99
2019-06-01T03:38:28.035Z,99.99
2019-06-01T03:39:08.570Z,99.99
2019-06-01T03:39:48.879Z,99.99
2019-06-01T03:40:29.288Z,99.99
2019-06-01T03:41:09.816Z,99.99
2019-06-01T03:42:58.140Z,99.99
2019-06-01T03:43:40.704Z,99.99
2019-06-01T03:45:38.133Z,99.99
2019-06-01T03:46:18.855Z,99.99
2019-06-01T03:46:59.258Z,99.99
2019-06-01T03:47:39.728Z,99.99
2019-06-01T03:48:20.126Z,99.99
2019-06-01T03:49:01.424Z,99.99
2019-06-01T03:49:41.084Z,99.99
2019-06-01T03:51:03.607Z,99.99
2019-06-01T03:51:43.617Z,99.99
2019-06-01T03:52:24.175Z,99.99
2019-06-01T03:53:05.806Z,99.99
2019-06-01T03:53:45.168Z,99.99
2019-06-01T03:54:25.605Z,99.99
2019-06-01T03:55:06.005Z,99.99
2019-06-01T03:55:51.396Z,99.99
2019-06-01T03:56:31.704Z,99.99
2019-06-01T03:57:12.479Z,99.99
2019-06-01T03:58:33.850Z,99.99
2019-06-01T03:59:14.823Z,99.99
2019-06-01T03:59:55.862Z,99.99
2019-06-01T04:00:36.468Z,99.99
2019-06-01T04:01:17.202Z,99.99
2019-06-01T04:02:02.887Z,99.99
2019-06-01T04:02:45.777Z,99.99
2019-06-01T04:03:26.863Z,99.99
2019-06-01T04:04:07.296Z,99.99
2019-06-01T04:04:47.674Z,99.99
2019-06-01T04:05:28.086Z,99.99
2019-06-01T04:06:13.493Z,99.99
2019-06-01T04:06:53.899Z,99.99
2019-06-01T04:07:34.387Z,99.99
2019-06-01T04:08:14.863Z,99.99
2019-06-01T04:08:56.749Z,99.99
2019-06-01T04:09:38.328Z,99.99
2019-06-01T04:11:46.772Z,99.99
2019-06-01T04:12:36.187Z,99.99
2019-06-01T04:13:17.161Z,99.99
2019-06-01T04:13:57.747Z,99.99
2019-06-01T04:14:38.317Z,99.99
2019-06-01T04:16:01.728Z,99.99
2019-06-01T04:16:41.667Z,99.99
2019-06-01T04:17:22.158Z,99.99
2019-06-01T04:18:03.869Z,99.99
2019-06-01T04:18:43.114Z,99.99
2019-06-01T04:19:23.542Z,99.99
2019-06-01T04:21:22.204Z,99.99
2019-06-01T04:22:04.067Z,99.99
2019-06-01T04:22:44.126Z,99.99
2019-06-01T04:23:24.570Z,99.99
2019-06-01T04:24:05.947Z,99.99
2019-06-01T04:24:45.434Z,99.99
2019-06-01T04:26:06.293Z,99.99
2019-06-01T04:26:46.679Z,99.99
2019-06-01T04:27:27.072Z,99.99
2019-06-01T04:28:08.150Z,99.96
2019-06-01T05:05:24.757Z,87.11
2019-06-01T05:06:05.115Z,86.34
2019-06-01T05:06:45.482Z,86.68
2019-06-01T05:07:25.865Z,85.62
2019-06-01T05:08:07.375Z,85.42
2019-06-01T05:08:47.815Z,85.42
2019-06-01T05:10:09.394Z,83.89
2019-06-01T05:10:49.806Z,83.45
2019-06-01T05:11:30.827Z,83.54
2019-06-01T05:12:11.451Z,82.78
2019-06-01T05:12:51.722Z,82.59
2019-06-01T05:13:32.040Z,82.4
2019-06-01T05:14:13.766Z,82.01
2019-06-01T05:14:53.278Z,81.72
2019-06-01T05:15:33.854Z,81.63
2019-06-01T05:16:14.814Z,81.72
2019-06-01T05:17:35.843Z,81.19
2019-06-01T05:18:19.311Z,81.38
2019-06-01T05:18:56.726Z,81.43
2019-06-01T05:19:37.563Z,80.9
2019-06-01T05:20:18.043Z,80.51
2019-06-01T05:20:58.810Z,79.75
2019-06-01T05:21:39.291Z,79.27
2019-06-01T05:22:19.675Z,78.83
2019-06-01T05:23:00.321Z,78.44
2019-06-01T05:23:40.716Z,77.96
2019-06-01T05:24:21.232Z,77.58
2019-06-01T05:25:01.628Z,76.26
2019-06-01T05:25:42.130Z,75.98
2019-06-01T05:26:22.582Z,75.21
2019-06-01T05:27:03.120Z,74.48
2019-06-01T05:27:43.543Z,74.03
2019-06-01T05:28:24.161Z,72.68
2019-06-01T05:29:04.477Z,71.14
2019-06-01T05:29:44.920Z,70.79
2019-06-01T05:30:25.516Z,70.5
2019-06-01T05:31:06.646Z,69.48
2019-06-01T05:32:27.625Z,68.61
2019-06-01T05:33:21.296Z,68.52
2019-06-01T05:33:48.970Z,67.78
2019-06-01T05:35:09.810Z,66.04
2019-06-01T05:35:50.587Z,65.69
2019-06-01T05:36:31.158Z,65.01
2019-06-01T05:37:12.312Z,64.86
2019-06-01T05:37:52.126Z,64.47
2019-06-01T05:38:32.590Z,63.5
2019-06-01T05:39:53.901Z,63.15
2019-06-01T05:40:34.370Z,62.86
2019-06-01T05:41:15.061Z,62.18
2019-06-01T05:41:55.496Z,61.8
2019-06-01T05:42:36.015Z,61.41
2019-06-01T05:43:18.978Z,61.54
2019-06-01T05:43:56.833Z,61.44
2019-06-01T05:44:37.363Z,61.05
2019-06-01T05:45:19.177Z,60.28
2019-06-01T05:47:12.134Z,61.15
2019-06-01T05:47:52.182Z,61.05
2019-06-01T05:48:32.630Z,61.25
2019-06-01T05:49:13.476Z,60.76
2019-06-01T05:49:53.460Z,60.86
2019-06-01T05:50:33.829Z,60.76
2019-06-01T05:51:16.807Z,61.05
2019-06-01T05:51:54.657Z,61.25
2019-06-01T05:52:35.055Z,61.44
2019-06-01T05:53:16.562Z,60.86
2019-06-01T05:53:55.814Z,60.76
2019-06-01T05:54:36.217Z,61.25
2019-06-01T05:55:16.786Z,60.41
2019-06-01T05:55:56.999Z,60.6
2019-06-01T05:56:37.407Z,60.5
2019-06-01T05:57:19.320Z,60.31
2019-06-01T05:57:58.248Z,60.5
2019-06-01T05:58:38.715Z,60.6
2019-06-01T05:59:19.079Z,60.41
2019-06-01T05:59:59.486Z,60.69
2019-06-01T06:00:39.959Z,60.24
2019-06-01T06:01:20.354Z,59.66
2019-06-01T06:02:00.769Z,59.18
2019-06-01T06:02:41.193Z,59.28
2019-06-01T06:03:26.545Z,58.92
2019-06-01T06:04:42.467Z,58.63
2019-06-01T06:05:22.921Z,58.53
2019-06-01T06:06:03.306Z,57.95
2019-06-01T06:07:24.155Z,58.04
2019-06-01T06:08:04.569Z,58.17
2019-06-01T06:08:44.997Z,57.79
2019-06-01T06:09:25.435Z,57.4
2019-06-01T06:10:05.841Z,57.01
2019-06-01T06:10:46.259Z,56.92
2019-06-01T06:11:26.697Z,56.65
2019-06-01T06:12:07.117Z,56.16
2019-06-01T06:12:47.535Z,56.26
2019-06-01T06:13:27.968Z,55.71
2019-06-01T06:14:08.426Z,55.71
2019-06-01T06:14:48.787Z,55.71
2019-06-01T06:15:29.194Z,55.52
2019-06-01T06:16:09.599Z,55.32
2019-06-01T06:16:50.062Z,55.13
2019-06-01T06:17:30.411Z,55.32
2019-06-01T06:18:11.604Z,55.32
2019-06-01T06:18:51.241Z,55.3
2019-06-01T06:19:31.628Z,55.4
2019-06-01T06:20:12.026Z,56
2019-06-01T06:20:52.458Z,55.9
2019-06-01T06:22:14.128Z,56
2019-06-01T06:22:53.784Z,56.2
2019-06-01T06:23:34.094Z,56.39
2019-06-01T06:24:14.518Z,55.81
2019-06-01T06:24:54.947Z,56.2
2019-06-01T06:25:38.366Z,56.29
2019-06-01T06:26:17.213Z,56.59
2019-06-01T06:26:56.241Z,56.85
2019-06-01T06:27:36.680Z,57.62
2019-06-01T06:28:17.065Z,57.36
2019-06-01T06:28:57.410Z,57.07
2019-06-01T06:29:37.789Z,56.87
2019-06-01T06:30:18.981Z,57.36
2019-06-01T06:30:58.613Z,57.07
2019-06-01T06:31:39.031Z,57.26
2019-06-01T06:32:19.402Z,57.26
2019-06-01T06:32:59.811Z,57.26
2019-06-01T06:33:53.322Z,57.07
2019-06-01T06:34:21.552Z,56.97
2019-06-01T06:35:01.006Z,57.17
2019-06-01T06:35:41.414Z,56.68
2019-06-01T06:36:21.847Z,56.49
2019-06-01T06:37:02.262Z,56.2
2019-06-01T06:37:42.746Z,56.03
2019-06-01T06:38:24.037Z,56.41
2019-06-01T06:39:43.869Z,56.23
2019-06-01T06:40:24.348Z,56.13
2019-06-01T06:41:04.685Z,56.13
2019-06-01T06:41:45.105Z,56.77
2019-06-01T06:42:25.511Z,57.45
2019-06-01T06:43:16.574Z,57.65
2019-06-01T06:43:46.284Z,57.65
2019-06-01T06:44:26.670Z,57.26
2019-06-01T06:45:07.114Z,57.45
2019-06-01T06:45:47.542Z,57.26
2019-06-01T06:46:27.954Z,57.17
2019-06-01T06:47:08.399Z,57.84
2019-06-01T06:47:48.809Z,57.91
2019-06-01T06:48:29.206Z,58.23
2019-06-01T06:49:10.126Z,57.84
2019-06-01T06:49:50.075Z,57.36
2019-06-01T06:50:30.434Z,57.26
2019-06-01T06:51:10.841Z,57.65
2019-06-01T06:51:51.273Z,57.09
2019-06-01T06:52:31.716Z,57.48
2019-06-01T06:53:24.350Z,57.19
2019-06-01T06:54:32.906Z,57.58
2019-06-01T06:55:13.345Z,57.19
2019-06-01T06:55:53.788Z,57.29
2019-06-01T06:57:15.810Z,56.35
2019-06-01T06:57:55.058Z,56.15
2019-06-01T06:58:35.501Z,54.99
2019-06-01T06:59:16.218Z,54.9
2019-06-01T06:59:56.375Z,54.8
2019-06-01T07:00:36.770Z,54.9
2019-06-01T07:01:17.189Z,55.47
2019-06-01T07:01:57.597Z,54.99
2019-06-01T07:02:38.056Z,55.18
2019-06-01T07:03:18.915Z,55.28
2019-06-01T07:04:11.531Z,55.77
2019-06-01T07:04:39.230Z,55.77
2019-06-01T07:05:19.649Z,56.15
2019-06-01T07:06:00.061Z,55.67
2019-06-01T07:06:40.487Z,55.11
2019-06-01T07:07:21.697Z,54.72
2019-06-01T07:08:01.343Z,54.72
2019-06-01T07:08:41.772Z,53.97
2019-06-01T07:09:22.207Z,53.69
2019-06-01T07:10:02.626Z,53.3
2019-06-01T07:10:43.015Z,53.2
2019-06-01T07:12:03.938Z,53.1
2019-06-01T07:12:44.362Z,52.81
2019-06-01T07:13:25.404Z,52.42
2019-06-01T07:14:05.150Z,52.62
2019-06-01T07:14:45.572Z,52.91
2019-06-01T07:15:25.927Z,53.1
2019-06-01T07:16:06.355Z,52.91
2019-06-01T07:16:46.735Z,51.87
2019-06-01T07:17:27.688Z,51.87
2019-06-01T07:18:07.524Z,51.31
2019-06-01T07:18:47.950Z,50.92
2019-06-01T07:19:28.386Z,51.01
2019-06-01T07:20:08.749Z,50.34
2019-06-01T07:20:49.158Z,50.43
2019-06-01T07:21:29.659Z,50.73
2019-06-01T07:22:10.230Z,50.46
2019-06-01T07:22:50.667Z,49.97
2019-06-01T07:23:32.134Z,49.87
2019-06-01T07:24:12.746Z,49.8
2019-06-01T07:24:53.191Z,49.68
2019-06-01T07:25:34.237Z,49.97
2019-06-01T07:26:56.508Z,50.75
2019-06-01T07:27:36.360Z,51.23
2019-06-01T07:28:16.929Z,50.36
2019-06-01T07:28:57.635Z,50.16
2019-06-01T07:29:38.937Z,49.78
2019-06-01T07:30:20.485Z,49.39
2019-06-01T07:31:01.270Z,48.8
2019-06-01T07:32:22.664Z,50.14
2019-06-01T07:33:03.627Z,50.8
2019-06-01T07:33:44.290Z,51.28
2019-06-01T07:34:33.147Z,51.87
2019-06-01T07:35:05.905Z,52.03
2019-06-01T07:35:47.505Z,51.84
2019-06-01T07:36:28.601Z,51.84
2019-06-01T07:37:08.494Z,51.77
2019-06-01T07:37:49.518Z,51.97
2019-06-01T07:38:30.623Z,51.4
2019-06-01T07:39:10.987Z,51.01
2019-06-01T07:39:52.509Z,50.04
2019-06-01T07:40:32.985Z,49.87
2019-06-01T07:41:14.009Z,49.87
2019-06-01T07:41:53.984Z,49.49
2019-06-01T07:43:15.078Z,49.02
2019-06-01T07:43:55.668Z,49.49
2019-06-01T07:44:35.955Z,49.29
2019-06-01T07:45:16.861Z,49.1
2019-06-01T07:45:57.272Z,49.85
2019-06-01T07:46:37.707Z,49.87
2019-06-01T07:47:18.194Z,49.87
2019-06-01T07:47:58.630Z,49.19
2019-06-01T07:48:39.447Z,48.41
2019-06-01T07:49:20.910Z,47.76
2019-06-01T07:51:47.275Z,46.13
2019-06-01T07:52:28.263Z,46.05
2019-06-01T07:53:08.128Z,45.37
2019-06-01T07:53:48.562Z,45.28
2019-06-01T07:54:28.987Z,45.78
2019-06-01T07:55:49.838Z,45.59
2019-06-01T07:56:30.274Z,44.83
2019-06-01T07:57:10.690Z,43.85
2019-06-01T07:57:51.123Z,43.49
2019-06-01T07:58:32.825Z,43.29
2019-06-01T07:59:11.910Z,42.73
2019-06-01T07:59:52.308Z,41.77
2019-06-01T08:00:33.167Z,41.36
2019-06-01T08:01:13.156Z,40.99
2019-06-01T08:01:53.594Z,41.58
2019-06-01T08:03:14.440Z,40.53
2019-06-01T08:03:54.887Z,38.96
2019-06-01T08:04:50.475Z,39.36
2019-06-01T08:05:15.689Z,39.45
2019-06-01T08:05:56.128Z,39.16
2019-06-01T08:06:36.550Z,38.79
2019-06-01T08:07:16.949Z,38.98
2019-06-01T08:07:57.380Z,38.49
2019-06-01T08:08:37.757Z,38.2
2019-06-01T08:09:18.171Z,38.61
2019-06-01T08:09:58.600Z,38.22
2019-06-01T08:10:39.001Z,37.83
2019-06-01T08:11:28.786Z,37.54
2019-06-01T08:12:04.833Z,37.65
2019-06-01T08:12:45.235Z,37.16
2019-06-01T08:13:29.338Z,36.98
2019-06-01T08:14:06.997Z,36.69
2019-06-01T08:14:47.407Z,36.1
2019-06-01T08:15:28.258Z,36.2
2019-06-01T08:16:08.263Z,35.61
2019-06-01T08:17:30.081Z,35.93
2019-06-01T08:18:09.682Z,35.53
2019-06-01T08:18:53.030Z,35.45
2019-06-01T08:20:10.905Z,34.67
2019-06-01T08:20:51.312Z,34.47
2019-06-01T08:21:32.353Z,34.28
2019-06-01T08:22:52.500Z,33.69
2019-06-01T08:23:32.926Z,33.29
2019-06-01T08:24:13.443Z,33.39
2019-06-01T08:24:55.748Z,33.41
2019-06-01T08:25:37.175Z,33.31
2019-06-01T08:26:20.015Z,32.61
2019-06-01T08:26:58.295Z,32.82
2019-06-01T08:27:38.713Z,32.82
2019-06-01T08:28:19.158Z,32.43
2019-06-01T08:28:59.581Z,32.04
2019-06-01T08:29:40.019Z,32.43
2019-06-01T08:30:20.449Z,32.53
2019-06-01T08:31:01.000Z,32.25
2019-06-01T08:31:41.413Z,32.45
2019-06-01T08:32:22.637Z,32.64
2019-06-01T08:33:02.268Z,32.54
2019-06-01T08:33:42.691Z,32.15
2019-06-01T08:34:23.125Z,32.37
2019-06-01T08:35:08.835Z,31.58
2019-06-01T08:35:43.994Z,31.77
2019-06-01T08:36:25.219Z,31.58
2019-06-01T08:37:05.125Z,31.79
2019-06-01T08:37:45.541Z,31.7
2019-06-01T08:38:27.354Z,31.6
2019-06-01T08:39:06.474Z,30.91
2019-06-01T08:40:27.728Z,30.53
2019-06-01T08:41:08.241Z,30.73
2019-06-01T08:41:48.644Z,30.43
2019-06-01T08:42:29.537Z,30.33
2019-06-01T08:43:09.697Z,30.53
2019-06-01T08:43:50.153Z,30.24
2019-06-01T08:44:31.672Z,29.86
2019-06-01T08:45:11.028Z,29.86
2019-06-01T08:45:51.473Z,29.37
2019-06-01T08:46:31.892Z,29.38
2019-06-01T08:47:12.322Z,29.28
2019-06-01T08:47:52.742Z,29.28
2019-06-01T08:48:34.038Z,28.7
2019-06-01T08:49:13.622Z,28.51
2019-06-01T08:49:54.019Z,28.81
2019-06-01T08:50:34.421Z,28.59
2019-06-01T08:51:14.848Z,28.3
2019-06-01T08:51:55.249Z,28.69
2019-06-01T08:52:35.680Z,28.79
2019-06-01T08:53:16.063Z,29.27
2019-06-01T08:53:56.479Z,29.38
2019-06-01T08:54:36.914Z,29.28
2019-06-01T08:55:57.778Z,28.41
2019-06-01T08:56:38.201Z,28.61
2019-06-01T08:57:18.639Z,28.61
2019-06-01T08:58:01.654Z,28.03
2019-06-01T08:58:42.071Z,28.33
2019-06-01T08:59:22.492Z,28.05
2019-06-01T09:00:02.918Z,27.75
2019-06-01T09:00:43.384Z,27.66
2019-06-01T09:01:24.489Z,27.95
2019-06-01T09:02:04.232Z,27.94
2019-06-01T09:02:44.717Z,28.03
2019-06-01T09:03:25.815Z,27.64
2019-06-01T09:04:05.565Z,27.56
2019-06-01T09:04:46.009Z,27.56
2019-06-01T09:05:28.313Z,27.56
2019-06-01T09:08:21.509Z,27.56
2019-06-01T09:09:00.037Z,27.75
2019-06-01T09:09:40.587Z,27.95
2019-06-01T09:10:20.862Z,28.24
2019-06-01T09:11:01.301Z,28.24
2019-06-01T09:11:41.728Z,28.34
2019-06-01T09:12:22.161Z,28.24
2019-06-01T09:13:02.615Z,28.23
2019-06-01T09:13:43.009Z,28.82
2019-06-01T09:14:23.427Z,28.72
2019-06-01T09:15:03.865Z,28.52
2019-06-01T09:15:44.287Z,28.92
2019-06-01T09:16:25.492Z,28.63
2019-06-01T09:17:05.184Z,28.63
2019-06-01T09:17:45.614Z,28.42
2019-06-01T09:18:27.444Z,28.33
2019-06-01T09:19:06.504Z,28.52
2019-06-01T09:19:46.942Z,28.52
2019-06-01T09:20:27.465Z,28.33
2019-06-01T09:21:07.792Z,28.14
2019-06-01T09:21:48.215Z,28.74
2019-06-01T09:22:29.390Z,28.63
2019-06-01T09:23:09.005Z,28.33
2019-06-01T09:23:49.423Z,28.74
2019-06-01T09:24:29.843Z,28.05
2019-06-01T09:25:10.248Z,28.24
2019-06-01T09:25:50.652Z,27.95
2019-06-01T09:27:11.594Z,27.86
2019-06-01T09:27:52.119Z,27.57
2019-06-01T09:28:33.892Z,27.76
2019-06-01T09:29:53.911Z,27.47
2019-06-01T09:30:36.300Z,27.17
2019-06-01T09:31:16.376Z,26.98
2019-06-01T09:31:56.808Z,26.78
2019-06-01T09:32:37.242Z,27.17
2019-06-01T09:33:17.663Z,27.17
2019-06-01T09:33:58.117Z,27.17
2019-06-01T09:34:38.521Z,27.67
2019-06-01T09:35:18.924Z,27.37
2019-06-01T09:35:59.361Z,27.76
2019-06-01T09:37:20.234Z,27.76
2019-06-01T09:38:00.640Z,27.85
2019-06-01T09:38:41.094Z,27.85
2019-06-01T09:40:01.929Z,29.39
2019-06-01T09:40:42.435Z,29.28
2019-06-01T09:41:22.808Z,29.27
2019-06-01T09:42:03.207Z,29.47
2019-06-01T09:42:43.608Z,29.76
2019-06-01T09:43:24.000Z,30.05
2019-06-01T09:44:04.406Z,30.07
2019-06-01T09:44:44.842Z,30.17
2019-06-01T09:45:25.306Z,30.36
2019-06-01T09:46:05.727Z,30.07
2019-06-01T09:46:46.187Z,29.38
2019-06-01T09:47:27.059Z,29.38
2019-06-01T09:48:07.324Z,29.19
2019-06-01T09:48:47.605Z,29.68
2019-06-01T09:52:42.809Z,30.05
2019-06-01T09:53:24.844Z,29.96
2019-06-01T09:54:05.277Z,30.45
2019-06-01T09:54:45.725Z,29.96
2019-06-01T09:55:27.489Z,30.25
2019-06-01T09:56:06.567Z,30.05
2019-06-01T09:57:27.703Z,29.77
2019-06-01T09:58:07.803Z,29.38
2019-06-01T09:58:48.169Z,29.28
2019-06-01T09:59:29.725Z,29.2
2019-06-01T10:00:08.995Z,29.28
2019-06-01T10:00:49.443Z,29.38
2019-06-01T10:01:30.103Z,28.81
2019-06-01T10:02:10.344Z,28.91
2019-06-01T10:02:50.780Z,28.63
2019-06-01T10:03:32.417Z,28.63
2019-06-01T10:04:11.782Z,28.13
2019-06-01T10:04:52.217Z,28.13
2019-06-01T10:05:32.638Z,28.33
2019-06-01T10:06:14.077Z,27.76
2019-06-01T10:06:53.514Z,26.97
2019-06-01T10:07:34.826Z,26.88
2019-06-01T10:08:14.343Z,26.48
2019-06-01T10:08:54.763Z,26.58
2019-06-01T10:09:35.737Z,25.89
2019-06-01T10:10:56.048Z,25.9
2019-06-01T10:11:36.528Z,25.81
2019-06-01T10:12:16.969Z,25.71
2019-06-01T10:13:38.374Z,25.61
2019-06-01T10:14:18.159Z,25.51
2019-06-01T10:14:58.597Z,25.81
2019-06-01T10:15:39.037Z,26.01
2019-06-01T10:16:19.446Z,25.81
2019-06-01T10:16:59.884Z,25.71
2019-06-01T10:17:40.335Z,25.71
2019-06-01T10:18:20.758Z,25.51
2019-06-01T10:19:01.210Z,25.33
2019-06-01T10:19:42.905Z,25.43
2019-06-01T10:20:22.049Z,25.62
2019-06-01T10:21:02.470Z,24.93
2019-06-01T10:21:42.888Z,25.03
2019-06-01T10:22:23.358Z,24.64
2019-06-01T10:23:03.876Z,24.54
2019-06-01T10:23:48.759Z,24.54